createdAt,value
2018-05-17T00:00:38.818Z,93551.02
2018-05-17T00:03:06.539Z,93557.97
2018-05-17T00:05:34.070Z,93559.91
2018-05-17T00:08:01.612Z,93559.20
2018-05-17T00:10:29.194Z,93555.27
2018-05-17T00:12:56.754Z,93548.82
2018-05-17T00:15:24.304Z,93551.50
2018-05-17T00:17:51.890Z,93545.34
2018-05-17T00:20:19.438Z,93549.08
2018-05-17T00:22:46.976Z,93549.33
2018-05-17T00:25:14.556Z,93550.94
2018-05-17T00:27:42.089Z,93543.95
2018-05-17T00:30:09.627Z,93553.39
2018-05-17T00:32:37.236Z,93556.48
2018-05-17T00:35:04.801Z,93558.09
2018-05-17T00:37:32.334Z,93551.22
2018-05-17T00:39:59.902Z,93554.66
2018-05-17T00:42:27.441Z,93540.67
2018-05-17T00:44:54.975Z,93541.80
2018-05-17T00:47:22.743Z,93538.59
2018-05-17T00:49:50.297Z,93544.02
2018-05-17T00:52:17.944Z,93548.72
2018-05-17T00:54:45.451Z,93552.89
2018-05-17T00:57:12.986Z,93556.17
2018-05-17T00:59:40.524Z,93545.72
2018-05-17T01:02:08.112Z,93541.30
2018-05-17T01:04:35.659Z,93541.75
2018-05-17T01:07:03.197Z,93547.11
2018-05-17T01:09:30.855Z,93533.38
2018-05-17T01:11:58.411Z,93539.75
2018-05-17T01:14:25.956Z,93526.48
2018-05-17T01:16:53.544Z,93532.39
2018-05-17T01:19:21.109Z,93534.59
2018-05-17T01:21:48.658Z,93527.88
2018-05-17T01:24:16.237Z,93538.95
2018-05-17T01:26:43.773Z,93538.31
2018-05-17T01:29:11.324Z,93542.66
2018-05-17T01:31:38.994Z,93548.75
2018-05-17T01:34:06.542Z,93542.76
2018-05-17T01:36:34.114Z,93540.48
2018-05-17T01:39:02.032Z,93531.60
2018-05-17T01:41:29.569Z,93540.88
2018-05-17T01:43:57.118Z,93534.75
2018-05-17T01:46:24.835Z,93531.11
2018-05-17T01:48:52.386Z,93526.66
2018-05-17T01:51:19.916Z,93525.26
2018-05-17T01:53:47.491Z,93522.22
2018-05-17T01:56:15.024Z,93521.42
2018-05-17T01:58:42.555Z,93524.12
2018-05-17T02:01:10.131Z,93528.81
2018-05-17T02:03:37.666Z,93531.81
2018-05-17T02:06:05.207Z,93532.60
2018-05-17T02:08:33.224Z,93547.36
2018-05-17T02:11:00.768Z,93546.92
2018-05-17T02:13:28.310Z,93549.84
2018-05-17T02:15:56.218Z,93550.66
2018-05-17T02:18:23.769Z,93554.91
2018-05-17T02:20:51.306Z,93552.68
2018-05-17T02:23:18.875Z,93554.47
2018-05-17T02:25:46.411Z,93559.11
2018-05-17T02:28:13.944Z,93556.44
2018-05-17T02:30:41.590Z,93555.59
2018-05-17T02:33:09.213Z,93556.78
2018-05-17T02:35:36.702Z,93555.84
2018-05-17T02:38:04.311Z,93555.09
2018-05-17T02:40:31.859Z,93560.98
2018-05-17T02:42:59.387Z,93564.33
2018-05-17T02:45:26.956Z,93568.46
2018-05-17T02:47:54.541Z,93564.66
2018-05-17T02:50:22.088Z,93576.23
2018-05-17T02:52:49.663Z,93571.52
2018-05-17T02:55:17.213Z,93573.06
2018-05-17T02:57:44.763Z,93569.69
2018-05-17T03:00:12.321Z,93568.64
2018-05-17T03:02:39.869Z,93563.41
2018-05-17T03:05:07.413Z,93578.41
2018-05-17T03:07:34.983Z,93577.02
2018-05-17T03:10:02.532Z,93582.42
2018-05-17T03:12:30.076Z,93578.75
2018-05-17T03:14:57.980Z,93569.20
2018-05-17T03:17:25.520Z,93576.39
2018-05-17T03:19:53.051Z,93580.70
2018-05-17T03:22:20.624Z,93580.81
2018-05-17T03:24:48.149Z,93573.92
2018-05-17T03:27:15.686Z,93578.48
2018-05-17T03:29:43.393Z,93582.11
2018-05-17T03:32:10.940Z,93583.87
2018-05-17T03:34:38.511Z,93583.98
2018-05-17T03:37:06.071Z,93587.54
2018-05-17T03:39:33.640Z,93593.53
2018-05-17T03:42:01.197Z,93593.20
2018-05-17T03:44:28.735Z,93591.64
2018-05-17T03:46:56.273Z,93583.38
2018-05-17T03:49:23.939Z,93578.72
2018-05-17T03:51:51.476Z,93576.38
2018-05-17T03:54:19.013Z,93580.31
2018-05-17T03:56:46.740Z,93587.41
2018-05-17T03:59:14.267Z,93587.62
2018-05-17T04:01:53.411Z,93585.59
2018-05-17T04:04:32.502Z,93594.90
2018-05-17T04:07:00.158Z,93594.75
2018-05-17T04:09:27.653Z,93606.61
2018-05-17T04:11:55.208Z,93605.84
2018-05-17T04:14:23.130Z,93605.01
2018-05-17T04:16:50.678Z,93603.80
2018-05-17T04:19:18.214Z,93608.34
2018-05-17T04:21:45.779Z,93609.22
2018-05-17T04:24:13.325Z,93608.75
2018-05-17T04:26:40.869Z,93616.70
2018-05-17T04:29:08.626Z,93608.61
2018-05-17T04:31:36.168Z,93617.00
2018-05-17T04:34:03.701Z,93621.45
2018-05-17T04:36:31.427Z,93621.70
2018-05-17T04:38:59.005Z,93612.20
2018-05-17T04:41:26.544Z,93621.33
2018-05-17T04:43:54.101Z,93619.22
2018-05-17T04:46:21.665Z,93615.41
2018-05-17T04:48:49.241Z,93609.34
2018-05-17T04:51:16.788Z,93610.42
2018-05-17T04:53:44.320Z,93604.08
2018-05-17T04:56:12.041Z,93603.06
2018-05-17T04:58:39.583Z,93599.21
2018-05-17T05:01:07.140Z,93601.30
2018-05-17T05:03:34.711Z,93607.21
2018-05-17T05:06:02.259Z,93606.30
2018-05-17T05:08:29.834Z,93616.88
2018-05-17T05:10:57.420Z,93613.82
2018-05-17T05:13:24.963Z,93620.17
2018-05-17T05:15:52.506Z,93619.00
2018-05-17T05:18:20.081Z,93612.83
2018-05-17T05:20:47.625Z,93618.41
2018-05-17T05:23:15.173Z,93619.39
2018-05-17T05:25:42.748Z,93617.36
2018-05-17T05:28:10.304Z,93614.60
2018-05-17T05:30:37.844Z,93613.67
2018-05-17T05:33:05.424Z,93611.20
2018-05-17T05:35:32.981Z,93618.53
2018-05-17T05:38:00.551Z,93610.59
2018-05-17T05:40:28.124Z,93618.80
2018-05-17T05:42:56.004Z,93620.80
2018-05-17T05:45:23.562Z,93630.69
2018-05-17T05:47:51.153Z,93626.86
2018-05-17T05:50:18.707Z,93626.73
2018-05-17T05:52:46.254Z,93617.94
2018-05-17T05:55:13.824Z,93624.81
2018-05-17T05:57:41.356Z,93616.05
2018-05-17T06:00:08.901Z,93619.20
2018-05-17T06:02:36.507Z,93615.21
2018-05-17T06:05:04.085Z,93609.28
2018-05-17T06:07:31.644Z,93614.20
2018-05-17T06:09:59.253Z,93611.97
2018-05-17T06:12:26.793Z,93609.62
2018-05-17T06:14:54.335Z,93615.82
2018-05-17T06:17:21.958Z,93617.89
2018-05-17T06:19:49.490Z,93618.44
2018-05-17T06:22:17.036Z,93621.50
2018-05-17T06:24:44.711Z,93626.27
2018-05-17T06:27:12.259Z,93628.97
2018-05-17T06:29:39.788Z,93624.67
2018-05-17T06:32:08.488Z,93621.47
2018-05-17T06:34:36.067Z,93622.73
2018-05-17T06:37:03.628Z,93615.75
2018-05-17T06:39:31.220Z,93615.64
2018-05-17T06:41:58.779Z,93607.98
2018-05-17T06:44:26.324Z,93613.48
2018-05-17T06:46:54.381Z,93601.05
2018-05-17T06:49:21.932Z,93603.58
2018-05-17T06:51:49.479Z,93602.05
2018-05-17T06:54:17.078Z,93595.52
2018-05-17T06:56:44.635Z,93602.95
2018-05-17T06:59:12.188Z,93602.02
2018-05-17T07:01:39.781Z,93604.41
2018-05-17T07:04:07.323Z,93601.34
2018-05-17T07:06:34.891Z,93601.66
2018-05-17T07:09:02.468Z,93605.94
2018-05-17T07:11:30.016Z,93607.41
2018-05-17T07:13:57.577Z,93604.44
2018-05-17T07:16:25.165Z,93601.88
2018-05-17T07:18:52.696Z,93605.57
2018-05-17T07:21:20.244Z,93611.73
2018-05-17T07:23:47.922Z,93611.11
2018-05-17T07:26:15.468Z,93617.55
2018-05-17T07:28:43.025Z,93610.12
2018-05-17T07:31:10.593Z,93608.75
2018-05-17T07:33:38.137Z,93604.70
2018-05-17T07:36:05.681Z,93611.22
2018-05-17T07:38:33.359Z,93619.73
2018-05-17T07:41:00.885Z,93611.17
2018-05-17T07:43:28.432Z,93617.51
2018-05-17T07:45:56.141Z,93626.95
2018-05-17T07:48:23.679Z,93621.00
2018-05-17T07:50:51.221Z,93622.19
2018-05-17T07:53:18.893Z,93623.77
2018-05-17T07:55:46.471Z,93628.84
2018-05-17T07:58:14.011Z,93626.69
2018-05-17T08:00:41.582Z,93625.36
2018-05-17T08:03:09.121Z,93623.91
2018-05-17T08:05:36.664Z,93623.21
2018-05-17T08:08:04.299Z,93626.27
2018-05-17T08:10:31.831Z,93620.75
2018-05-17T08:12:59.394Z,93619.55
2018-05-17T08:15:27.131Z,93623.86
2018-05-17T08:17:54.703Z,93623.81
2018-05-17T08:20:22.258Z,93622.89
2018-05-17T08:22:49.991Z,93622.06
2018-05-17T08:25:17.527Z,93618.08
2018-05-17T08:27:45.069Z,93616.52
2018-05-17T08:30:12.647Z,93614.75
2018-05-17T08:32:40.192Z,93615.89
2018-05-17T08:35:07.737Z,93615.56
2018-05-17T08:37:35.312Z,93613.56
2018-05-17T08:40:02.880Z,93623.38
2018-05-17T08:42:30.530Z,93620.14
2018-05-17T08:44:58.007Z,93625.45
2018-05-17T08:47:25.555Z,93632.20
2018-05-17T08:49:53.120Z,93615.28
2018-05-17T08:52:20.657Z,93618.02
2018-05-17T08:54:48.186Z,93621.93
2018-05-17T08:57:16.074Z,93621.25
2018-05-17T08:59:43.696Z,93616.63
2018-05-17T09:02:11.177Z,93615.11
2018-05-17T09:04:38.852Z,93610.44
2018-05-17T09:07:07.341Z,93609.77
2018-05-17T09:09:34.902Z,93614.70
2018-05-17T09:12:02.472Z,93600.48
2018-05-17T09:14:30.018Z,93591.03
2018-05-17T09:16:57.564Z,93608.05
2018-05-17T09:19:25.259Z,93611.33
2018-05-17T09:21:52.818Z,93604.99
2018-05-17T09:24:20.358Z,93595.45
2018-05-17T09:26:47.956Z,93594.98
2018-05-17T09:29:15.586Z,93599.88
2018-05-17T09:31:43.068Z,93594.77
2018-05-17T09:34:10.637Z,93590.45
2018-05-17T09:36:38.172Z,93591.43
2018-05-17T09:39:06.548Z,93589.35
2018-05-17T09:41:34.304Z,93584.78
2018-05-17T09:44:01.864Z,93588.38
2018-05-17T09:46:29.401Z,93593.78
2018-05-17T09:48:57.325Z,93590.66
2018-05-17T09:51:24.876Z,93583.31
2018-05-17T09:53:52.412Z,93580.96
2018-05-17T09:56:20.315Z,93585.31
2018-05-17T09:58:47.871Z,93590.77
2018-05-17T10:01:15.398Z,93585.59
2018-05-17T10:03:42.967Z,93595.14
2018-05-17T10:06:10.515Z,93584.40
2018-05-17T10:08:38.048Z,93593.48
2018-05-17T10:11:05.766Z,93587.35
2018-05-17T10:13:33.313Z,93596.60
2018-05-17T10:16:00.855Z,93589.91
2018-05-17T10:18:28.585Z,93596.09
2018-05-17T10:20:56.123Z,93587.34
2018-05-17T10:23:23.659Z,93577.34
2018-05-17T10:25:51.458Z,93577.74
2018-05-17T10:28:19.001Z,93578.33
2018-05-17T10:30:46.557Z,93580.14
2018-05-17T10:33:14.205Z,93584.80
2018-05-17T10:35:41.768Z,93586.50
2018-05-17T10:38:09.321Z,93592.11
2018-05-17T10:40:38.147Z,93588.39
2018-05-17T10:43:05.706Z,93591.55
2018-05-17T10:45:33.243Z,93578.64
2018-05-17T10:48:00.815Z,93578.92
2018-05-17T10:50:28.353Z,93578.45
2018-05-17T10:52:55.889Z,93581.09
2018-05-17T10:55:23.478Z,93576.00
2018-05-17T10:57:51.027Z,93564.09
2018-05-17T11:00:18.588Z,93563.42
2018-05-17T11:02:46.180Z,93558.81
2018-05-17T11:05:13.729Z,93549.81
2018-05-17T11:07:41.269Z,93556.47
2018-05-17T11:10:08.836Z,93544.78
2018-05-17T11:12:36.370Z,93552.34
2018-05-17T11:15:03.950Z,93556.14
2018-05-17T11:17:31.844Z,93545.84
2018-05-17T11:19:59.396Z,93538.72
2018-05-17T11:22:26.942Z,93546.21
2018-05-17T11:24:54.663Z,93554.42
2018-05-17T11:27:22.208Z,93548.01
2018-05-17T11:29:49.759Z,93542.89
2018-05-17T11:32:17.337Z,93547.16
2018-05-17T11:34:44.887Z,93540.04
2018-05-17T11:37:12.434Z,93546.34
2018-05-17T11:39:40.012Z,93535.63
2018-05-17T11:42:07.557Z,93556.78
2018-05-17T11:44:35.094Z,93540.78
2018-05-17T11:47:02.668Z,93548.69
2018-05-17T11:49:30.216Z,93540.09
2018-05-17T11:51:57.747Z,93540.73
2018-05-17T11:54:25.571Z,93536.67
2018-05-17T11:56:53.121Z,93542.11
2018-05-17T11:59:20.676Z,93548.36
2018-05-17T12:01:48.401Z,93546.54
2018-05-17T12:04:15.956Z,93558.42
2018-05-17T12:06:43.500Z,93555.32
2018-05-17T12:09:11.072Z,93546.81
2018-05-17T12:11:38.614Z,93546.02
2018-05-17T12:14:06.163Z,93546.77
2018-05-17T12:16:33.749Z,93546.91
2018-05-17T12:19:01.309Z,93545.64
2018-05-17T12:21:28.899Z,93536.00
2018-05-17T12:23:56.584Z,93535.41
2018-05-17T12:26:24.132Z,93526.72
2018-05-17T12:28:51.679Z,93530.52
2018-05-17T12:31:19.603Z,93522.80
2018-05-17T12:33:47.173Z,93530.92
2018-05-17T12:36:14.707Z,93534.78
2018-05-17T12:38:42.456Z,93533.63
2018-05-17T12:41:10.018Z,93526.75
2018-05-17T12:43:37.555Z,93535.42
2018-05-17T12:46:05.191Z,93526.64
2018-05-17T12:48:32.735Z,93525.51
2018-05-17T12:51:00.293Z,93526.84
2018-05-17T12:53:28.611Z,93522.73
2018-05-17T12:55:56.150Z,93529.50
2018-05-17T12:58:23.712Z,93518.75
2018-05-17T13:00:51.604Z,93522.22
2018-05-17T13:03:19.160Z,93529.41
2018-05-17T13:05:46.755Z,93516.77
2018-05-17T13:08:14.316Z,93515.75
2018-05-17T13:10:41.865Z,93519.95
2018-05-17T13:13:09.415Z,93529.37
2018-05-17T13:15:37.120Z,93521.28
2018-05-17T13:18:04.687Z,93526.50
2018-05-17T13:20:32.255Z,93526.09
2018-05-17T13:22:59.868Z,93525.69
2018-05-17T13:25:27.433Z,93525.32
2018-05-17T13:27:54.979Z,93524.01
2018-05-17T13:30:22.751Z,93519.12
2018-05-17T13:32:50.269Z,93516.46
2018-05-17T13:35:17.812Z,93518.91
2018-05-17T13:37:45.401Z,93523.35
2018-05-17T13:40:12.946Z,93517.69
2018-05-17T13:42:40.712Z,93518.69
2018-05-17T13:45:08.260Z,93523.04
2018-05-17T13:47:35.812Z,93524.19
2018-05-17T13:50:03.593Z,93521.33
2018-05-17T13:52:31.152Z,93525.64
2018-05-17T13:54:58.696Z,93533.82
2018-05-17T13:57:26.360Z,93531.18
2018-05-17T13:59:53.936Z,93538.45
2018-05-17T14:02:22.542Z,93535.60
2018-05-17T14:04:50.124Z,93528.36
2018-05-17T14:07:17.665Z,93525.75
2018-05-17T14:09:45.253Z,93525.21
2018-05-17T14:12:13.147Z,93532.70
2018-05-17T14:14:40.688Z,93532.08
2018-05-17T14:17:08.231Z,93530.65
2018-05-17T14:19:35.833Z,93536.21
2018-05-17T14:22:03.418Z,93534.72
2018-05-17T14:24:30.961Z,93529.31
2018-05-17T14:26:58.537Z,93531.28
2018-05-17T14:29:26.097Z,93543.42
2018-05-17T14:31:53.637Z,93542.63
2018-05-17T14:34:23.176Z,93545.09
2018-05-17T14:36:50.758Z,93543.36
2018-05-17T14:39:18.321Z,93546.73
2018-05-17T14:41:46.205Z,93542.67
2018-05-17T14:44:13.760Z,93542.19
2018-05-17T14:46:41.301Z,93543.43
2018-05-17T14:49:08.871Z,93544.58
2018-05-17T14:51:36.418Z,93541.44
2018-05-17T14:54:04.008Z,93535.13
2018-05-17T14:56:31.629Z,93532.03
2018-05-17T14:58:59.188Z,93543.28
2018-05-17T15:01:26.745Z,93540.05
2018-05-17T15:03:54.331Z,93543.31
2018-05-17T15:06:21.892Z,93532.34
2018-05-17T15:08:49.457Z,93542.16
2018-05-17T15:11:17.169Z,93540.84
2018-05-17T15:13:44.729Z,93536.80
2018-05-17T15:16:12.272Z,93540.08
2018-05-17T15:18:40.080Z,93542.99
2018-05-17T15:21:07.661Z,93543.64
2018-05-17T15:23:35.208Z,93543.16
2018-05-17T15:26:02.940Z,93547.01
2018-05-17T15:28:30.509Z,93550.80
2018-05-17T15:30:58.112Z,93550.22
2018-05-17T15:33:25.837Z,93551.93
2018-05-17T15:35:53.384Z,93547.53
2018-05-17T15:38:20.956Z,93554.22
2018-05-17T15:40:48.691Z,93549.32
2018-05-17T15:43:16.244Z,93553.48
2018-05-17T15:45:43.795Z,93544.42
2018-05-17T15:48:11.561Z,93551.39
2018-05-17T15:50:39.086Z,93556.70
2018-05-17T15:53:06.641Z,93557.18
2018-05-17T15:55:34.251Z,93567.06
2018-05-17T15:58:01.794Z,93560.20
2018-05-17T16:00:29.346Z,93564.52
2018-05-17T16:02:58.212Z,93561.29
2018-05-17T16:05:25.751Z,93569.28
2018-05-17T16:07:53.317Z,93567.06
2018-05-17T16:10:20.899Z,93565.29
2018-05-17T16:12:48.464Z,93568.45
2018-05-17T16:15:16.159Z,93566.59
2018-05-17T16:17:43.649Z,93569.81
2018-05-17T16:20:11.212Z,93564.56
2018-05-17T16:22:38.776Z,93569.94
2018-05-17T16:25:06.544Z,93562.28
2018-05-17T16:27:34.101Z,93572.70
2018-05-17T16:30:01.656Z,93575.10
2018-05-17T16:32:29.569Z,93581.44
2018-05-17T16:34:57.126Z,93571.44
2018-05-17T16:37:24.696Z,93575.67
2018-05-17T16:39:52.272Z,93580.45
2018-05-17T16:42:19.828Z,93582.22
2018-05-17T16:44:47.372Z,93578.03
2018-05-17T16:47:14.942Z,93581.86
2018-05-17T16:49:42.486Z,93584.59
2018-05-17T16:52:10.050Z,93583.11
2018-05-17T16:54:37.762Z,93587.96
2018-05-17T16:57:05.316Z,93590.95
2018-05-17T16:59:32.859Z,93592.67
2018-05-17T17:02:00.577Z,93594.18
2018-05-17T17:04:28.123Z,93593.73
2018-05-17T17:06:55.702Z,93599.72
2018-05-17T17:09:23.729Z,93602.25
2018-05-17T17:11:51.283Z,93600.30
2018-05-17T17:14:18.834Z,93595.85
2018-05-17T17:16:46.537Z,93611.61
2018-05-17T17:19:14.077Z,93601.75
2018-05-17T17:21:41.621Z,93612.57
2018-05-17T17:24:09.186Z,93608.73
2018-05-17T17:26:36.715Z,93617.94
2018-05-17T17:29:04.253Z,93623.47
2018-05-17T17:31:31.853Z,93625.50
2018-05-17T17:33:59.407Z,93630.31
2018-05-17T17:36:26.972Z,93625.88
2018-05-17T17:38:54.668Z,93630.51
2018-05-17T17:41:22.203Z,93630.38
2018-05-17T17:43:49.743Z,93623.22
2018-05-17T17:46:17.675Z,93631.48
2018-05-17T17:48:45.227Z,93626.56
2018-05-17T17:51:12.771Z,93636.39
2018-05-17T17:53:40.495Z,93638.33
2018-05-17T17:56:08.045Z,93636.00
2018-05-17T17:58:35.609Z,93640.03
2018-05-17T18:01:03.362Z,93643.91
2018-05-17T18:03:30.920Z,93639.25
2018-05-17T18:05:58.454Z,93647.62
2018-05-17T18:08:26.042Z,93645.05
2018-05-17T18:10:53.584Z,93655.14
2018-05-17T18:13:21.157Z,93654.39
2018-05-17T18:15:48.779Z,93653.88
2018-05-17T18:18:16.330Z,93655.69
2018-05-17T18:20:43.863Z,93659.54
2018-05-17T18:23:11.590Z,93666.31
2018-05-17T18:25:39.136Z,93659.67
2018-05-17T18:28:06.679Z,93660.59
2018-05-17T18:30:34.260Z,93666.27
2018-05-17T18:33:01.833Z,93668.52
2018-05-17T18:35:29.425Z,93670.37
2018-05-17T18:37:57.182Z,93677.37
2018-05-17T18:40:24.754Z,93680.67
2018-05-17T18:42:52.325Z,93679.15
2018-05-17T18:45:19.874Z,93683.64
2018-05-17T18:47:47.450Z,93684.13
2018-05-17T18:50:15.196Z,93695.00
2018-05-17T18:52:42.747Z,93696.13
2018-05-17T18:55:10.346Z,93698.31
2018-05-17T18:57:38.011Z,93695.67
2018-05-17T19:00:05.586Z,93702.70
2018-05-17T19:02:33.171Z,93704.70
2018-05-17T19:05:00.770Z,93707.52
2018-05-17T19:07:28.342Z,93712.62
2018-05-17T19:09:55.885Z,93711.77
2018-05-17T19:12:23.880Z,93712.03
2018-05-17T19:14:51.435Z,93719.36
2018-05-17T19:17:18.981Z,93716.70
2018-05-17T19:19:46.609Z,93721.66
2018-05-17T19:22:14.210Z,93719.43
2018-05-17T19:24:41.803Z,93715.32
2018-05-17T19:27:09.441Z,93720.08
2018-05-17T19:29:36.997Z,93714.08
2018-05-17T19:32:04.562Z,93723.05
2018-05-17T19:34:32.245Z,93717.58
2018-05-17T19:36:59.836Z,93725.09
2018-05-17T19:39:27.365Z,93726.50
2018-05-17T19:41:54.984Z,93725.50
2018-05-17T19:44:22.577Z,93725.89
2018-05-17T19:46:50.119Z,93729.81
2018-05-17T19:49:17.737Z,93724.80
2018-05-17T19:51:45.295Z,93732.88
2018-05-17T19:54:12.848Z,93732.97
2018-05-17T19:56:40.594Z,93734.81
2018-05-17T19:59:08.141Z,93737.47
2018-05-17T20:01:35.716Z,93736.81
2018-05-17T20:04:03.339Z,93741.02
2018-05-17T20:06:31.002Z,93741.18
2018-05-17T20:08:58.539Z,93755.10
2018-05-17T20:11:26.183Z,93754.06
2018-05-17T20:13:53.667Z,93751.12
2018-05-17T20:16:21.216Z,93750.94
2018-05-17T20:18:48.995Z,93748.44
2018-05-17T20:21:16.588Z,93747.27
2018-05-17T20:23:44.181Z,93753.28
2018-05-17T20:26:11.765Z,93751.80
2018-05-17T20:28:39.303Z,93753.53
2018-05-17T20:31:06.847Z,93745.02
2018-05-17T20:33:34.791Z,93753.91
2018-05-17T20:36:02.357Z,93751.61
2018-05-17T20:38:29.913Z,93756.38
2018-05-17T20:40:57.512Z,93760.02
2018-05-17T20:43:25.081Z,93755.47
2018-05-17T20:45:52.660Z,93759.73
2018-05-17T20:48:20.406Z,93759.16
2018-05-17T20:50:47.964Z,93755.40
2018-05-17T20:53:15.531Z,93757.67
2018-05-17T20:55:43.111Z,93750.16
2018-05-17T20:58:10.657Z,93751.09
2018-05-17T21:00:38.232Z,93753.59
2018-05-17T21:03:05.924Z,93747.81
2018-05-17T21:05:33.468Z,93747.55
2018-05-17T21:08:01.004Z,93744.55
2018-05-17T21:10:28.586Z,93741.92
2018-05-17T21:12:56.136Z,93742.05
2018-05-17T21:15:23.676Z,93743.85
2018-05-17T21:17:51.446Z,93748.19
2018-05-17T21:20:18.997Z,93750.33
2018-05-17T21:22:46.544Z,93751.98
2018-05-17T21:25:14.122Z,93749.86
2018-05-17T21:27:41.672Z,93752.45
2018-05-17T21:30:09.255Z,93746.66
2018-05-17T21:32:36.844Z,93748.31
2018-05-17T21:35:04.392Z,93750.27
2018-05-17T21:37:31.944Z,93754.41
2018-05-17T21:39:59.862Z,93747.08
2018-05-17T21:42:27.414Z,93749.00
2018-05-17T21:44:54.986Z,93749.80
2018-05-17T21:47:22.605Z,93753.34
2018-05-17T21:49:50.144Z,93757.38
2018-05-17T21:52:17.706Z,93756.56
2018-05-17T21:54:45.276Z,93754.97
2018-05-17T21:57:12.859Z,93761.13
2018-05-17T21:59:40.412Z,93758.00
2018-05-17T22:02:07.977Z,93758.77
2018-05-17T22:04:35.534Z,93753.23
2018-05-17T22:07:03.084Z,93754.01
2018-05-17T22:09:30.671Z,93751.72
2018-05-17T22:11:58.215Z,93751.35
2018-05-17T22:14:25.803Z,93749.97
2018-05-17T22:16:53.357Z,93751.73
2018-05-17T22:19:20.908Z,93750.21
2018-05-17T22:21:48.450Z,93748.45
2018-05-17T22:24:16.023Z,93752.33
2018-05-17T22:26:43.562Z,93751.73
2018-05-17T22:29:11.185Z,93755.34
2018-05-17T22:31:39.006Z,93760.78
2018-05-17T22:34:07.054Z,93752.47
2018-05-17T22:36:34.592Z,93756.58
2018-05-17T22:39:02.179Z,93751.14
2018-05-17T22:41:29.719Z,93751.99
2018-05-17T22:43:57.259Z,93746.09
2018-05-17T22:46:24.827Z,93744.92
2018-05-17T22:48:53.295Z,93742.06
2018-05-17T22:51:20.892Z,93747.95
2018-05-17T22:53:48.445Z,93748.73
2018-05-17T22:56:27.901Z,93752.94
2018-05-17T22:58:55.504Z,93755.88
2018-05-17T23:01:23.045Z,93746.59
2018-05-17T23:03:50.912Z,93745.20
2018-05-17T23:06:18.473Z,93747.35
2018-05-17T23:08:46.015Z,93751.41
2018-05-17T23:11:13.607Z,93752.25
2018-05-17T23:13:41.159Z,93746.78
2018-05-17T23:16:08.704Z,93748.59
2018-05-17T23:18:36.299Z,93750.17
2018-05-17T23:21:03.836Z,93750.14
2018-05-17T23:23:31.396Z,93747.84
2018-05-17T23:25:58.964Z,93748.16
2018-05-17T23:28:26.523Z,93743.39
2018-05-17T23:30:54.084Z,93736.19
2018-05-17T23:33:21.651Z,93728.13
2018-05-17T23:35:49.231Z,93738.30
2018-05-17T23:38:16.776Z,93738.36
2018-05-17T23:43:49.266Z,93733.97
2018-05-17T23:46:17.171Z,93735.29
2018-05-17T23:48:44.720Z,93735.45
2018-05-17T23:51:12.273Z,93738.34
2018-05-17T23:53:40.024Z,93738.84
2018-05-17T23:56:07.557Z,93735.80
2018-05-17T23:58:35.120Z,93742.73
